createdAt,value
2022-09-15T00:01:22.429Z,72.24
2022-09-15T00:03:51.246Z,72.39
2022-09-15T00:06:20.193Z,72.46
2022-09-15T00:08:48.539Z,74.04
2022-09-15T00:11:22.244Z,73.31
2022-09-15T00:13:52.577Z,73.05
2022-09-15T00:16:23.969Z,72.95
2022-09-15T00:18:52.293Z,72.98
2022-09-15T00:21:26.493Z,73.19
2022-09-15T00:23:55.316Z,73.23
2022-09-15T00:26:26.463Z,74.74
2022-09-15T00:28:57.792Z,74.11
2022-09-15T00:31:27.330Z,73.74
2022-09-15T00:34:02.549Z,73.81
2022-09-15T00:36:31.127Z,74.47
2022-09-15T00:38:59.090Z,73.92
2022-09-15T00:41:27.179Z,74.56
2022-09-15T00:44:02.386Z,73.90
2022-09-15T00:46:36.200Z,74.37
2022-09-15T00:49:16.572Z,74.23
2022-09-15T00:51:50.892Z,73.88
2022-09-15T00:54:26.645Z,73.72
2022-09-15T00:56:59.127Z,73.48
2022-09-15T00:59:30.176Z,73.78
2022-09-15T01:02:11.712Z,73.67
2022-09-15T01:04:39.884Z,74.99
2022-09-15T01:07:12.142Z,74.11
2022-09-15T01:09:51.115Z,74.69
2022-09-15T01:12:19.861Z,77.63
2022-09-15T01:14:47.818Z,75.98
2022-09-15T01:17:55.475Z,76.87
2022-09-15T01:20:55.648Z,76.44
2022-09-15T01:23:45.936Z,75.86
2022-09-15T01:26:48.126Z,76.23
2022-09-15T01:29:46.052Z,75.76
2022-09-15T01:32:55.986Z,75.61
2022-09-15T01:35:56.404Z,76.02
2022-09-15T01:38:42.610Z,75.66
2022-09-15T01:41:25.518Z,75.68
2022-09-15T01:44:13.783Z,75.99
2022-09-15T01:46:50.540Z,75.93
2022-09-15T01:49:26.407Z,75.77
2022-09-15T01:52:17.252Z,75.94
2022-09-15T01:54:49.743Z,75.74
2022-09-15T01:57:24.476Z,76.97
2022-09-15T01:59:56.375Z,76.78
2022-09-15T02:02:34.334Z,76.42
2022-09-15T02:05:09.892Z,76.26
2022-09-15T02:07:47.809Z,75.82
2022-09-15T02:10:33.335Z,75.74
2022-09-15T02:13:19.380Z,76.02
2022-09-15T02:15:54.042Z,76.02
2022-09-15T02:18:40.347Z,76.20
2022-09-15T02:21:19.258Z,76.26
2022-09-15T02:23:51.238Z,76.90
2022-09-15T02:26:25.550Z,78.23
2022-09-15T02:29:21.383Z,77.93
2022-09-15T02:31:56.137Z,80.67
2022-09-15T02:34:31.690Z,78.74
2022-09-15T02:37:10.063Z,78.21
2022-09-15T02:39:44.465Z,78.35
2022-09-15T02:42:27.877Z,78.55
2022-09-15T02:45:03.292Z,80.63
2022-09-15T02:47:41.839Z,79.27
2022-09-15T02:50:10.129Z,78.98
2022-09-15T02:52:54.267Z,79.27
2022-09-15T02:55:23.685Z,79.26
2022-09-15T02:58:10.618Z,79.64
2022-09-15T03:00:55.140Z,78.87
2022-09-15T03:03:24.712Z,78.70
2022-09-15T03:06:15.811Z,79.91
2022-09-15T03:09:00.355Z,78.94
2022-09-15T03:11:30.647Z,80.35
2022-09-15T03:14:09.192Z,81.18
2022-09-15T03:16:40.296Z,80.11
2022-09-15T03:19:29.411Z,79.50
2022-09-15T03:21:58.346Z,79.78
2022-09-15T03:24:26.224Z,80.19
2022-09-15T03:27:01.378Z,79.36
2022-09-15T03:29:31.737Z,81.32
2022-09-15T03:31:59.820Z,80.88
2022-09-15T03:34:58.836Z,80.78
2022-09-15T03:37:59.826Z,81.70
2022-09-15T03:40:27.894Z,81.36
2022-09-15T03:42:55.986Z,81.46
2022-09-15T03:45:24.045Z,80.53
2022-09-15T03:47:52.239Z,80.31
2022-09-15T03:50:20.039Z,80.48
2022-09-15T03:52:48.015Z,80.10
2022-09-15T03:55:15.835Z,80.17
2022-09-15T03:57:43.708Z,79.46
2022-09-15T04:00:12.531Z,79.71
2022-09-15T04:02:40.642Z,79.20
2022-09-15T04:05:09.026Z,79.06
2022-09-15T04:07:36.919Z,78.85
2022-09-15T04:10:05.636Z,78.90
2022-09-15T04:12:34.499Z,79.10
2022-09-15T04:15:04.184Z,78.91
2022-09-15T04:17:32.342Z,78.61
2022-09-15T04:20:00.170Z,78.36
2022-09-15T04:22:31.244Z,78.19
2022-09-15T04:24:59.122Z,78.23
2022-09-15T04:27:27.810Z,78.00
2022-09-15T04:29:55.876Z,77.88
2022-09-15T04:32:24.057Z,77.68
2022-09-15T04:34:53.315Z,77.15
2022-09-15T04:37:22.453Z,76.59
2022-09-15T04:39:50.896Z,76.26
2022-09-15T04:42:20.943Z,75.95
2022-09-15T04:44:48.806Z,76.10
2022-09-15T04:47:17.502Z,75.82
2022-09-15T04:49:45.915Z,75.32
2022-09-15T04:52:14.029Z,75.80
2022-09-15T04:54:42.414Z,75.23
2022-09-15T04:57:11.127Z,74.98
2022-09-15T04:59:39.377Z,74.99
2022-09-15T05:02:07.281Z,74.79
2022-09-15T05:04:35.332Z,74.98
2022-09-15T05:07:03.228Z,75.18
2022-09-15T05:09:31.196Z,75.16
2022-09-15T05:11:59.034Z,75.21
2022-09-15T05:14:27.047Z,75.27
2022-09-15T05:16:55.125Z,75.22
2022-09-15T05:19:23.208Z,75.04
2022-09-15T05:21:51.260Z,74.76
2022-09-15T05:24:19.332Z,74.64
2022-09-15T05:26:47.251Z,74.17
2022-09-15T05:29:15.540Z,74.05
2022-09-15T05:31:43.501Z,73.91
2022-09-15T05:34:11.495Z,73.63
2022-09-15T05:36:39.572Z,73.49
2022-09-15T05:39:07.784Z,73.82
2022-09-15T05:41:35.725Z,73.75
2022-09-15T05:44:03.847Z,73.51
2022-09-15T05:46:31.850Z,73.39
2022-09-15T05:48:59.853Z,73.25
2022-09-15T05:51:27.885Z,73.35
2022-09-15T05:53:56.029Z,74.17
2022-09-15T05:56:23.942Z,74.23
2022-09-15T05:58:52.269Z,74.41
2022-09-15T06:01:24.398Z,74.06
2022-09-15T06:03:53.524Z,73.83
2022-09-15T06:06:22.972Z,73.31
2022-09-15T06:08:58.004Z,73.46
2022-09-15T06:11:31.107Z,73.63
2022-09-15T06:14:03.419Z,73.48
2022-09-15T06:16:34.699Z,73.06
2022-09-15T06:19:03.472Z,73.01
2022-09-15T06:21:36.815Z,72.62
2022-09-15T06:24:07.665Z,72.30
2022-09-15T06:26:37.542Z,72.03
2022-09-15T06:29:08.713Z,71.97
2022-09-15T06:31:38.312Z,71.69
2022-09-15T06:34:10.860Z,71.59
2022-09-15T06:36:40.503Z,71.46
2022-09-15T06:41:00.989Z,71.25
2022-09-15T06:42:27.406Z,70.88
2022-09-15T06:44:55.399Z,70.29
2022-09-15T06:47:23.640Z,70.43
2022-09-15T06:49:53.753Z,70.02
2022-09-15T06:52:22.342Z,69.92
2022-09-15T06:54:50.161Z,69.18
2022-09-15T06:57:18.133Z,68.39
2022-09-15T06:59:46.135Z,68.22
2022-09-15T07:02:14.266Z,67.70
2022-09-15T07:04:45.479Z,67.56
2022-09-15T07:08:11.449Z,66.60
2022-09-15T07:10:46.271Z,65.07
2022-09-15T07:13:45.915Z,65.05
2022-09-15T07:16:20.353Z,65.61
2022-09-15T07:19:19.325Z,65.30
2022-09-15T07:23:02.627Z,65.41
2022-09-15T07:26:20.404Z,65.42
2022-09-15T07:29:37.822Z,65.56
2022-09-15T07:32:15.265Z,64.95
2022-09-15T07:34:58.242Z,64.66
2022-09-15T07:37:37.624Z,64.91
2022-09-15T07:40:22.286Z,64.86
2022-09-15T07:43:09.695Z,64.96
2022-09-15T07:46:28.318Z,65.38
2022-09-15T07:49:44.113Z,65.63
2022-09-15T07:52:25.961Z,65.87
2022-09-15T07:55:52.494Z,66.16
2022-09-15T07:58:56.221Z,65.98
2022-09-15T08:01:57.358Z,65.97
2022-09-15T08:04:39.006Z,66.01
2022-09-15T08:07:24.565Z,65.90
2022-09-15T08:10:15.987Z,65.90
2022-09-15T08:12:44.214Z,66.24
2022-09-15T08:15:18.986Z,66.29
2022-09-15T08:17:54.515Z,65.92
2022-09-15T08:20:27.766Z,65.79
2022-09-15T08:23:07.615Z,65.76
2022-09-15T08:25:47.894Z,65.84
2022-09-15T08:28:16.080Z,66.03
2022-09-15T08:30:47.115Z,65.98
2022-09-15T08:33:16.688Z,65.73
2022-09-15T08:35:45.385Z,65.66
2022-09-15T08:39:37.757Z,65.49
2022-09-15T08:42:19.754Z,65.34
2022-09-15T08:45:40.487Z,65.41
2022-09-15T08:52:28.427Z,64.81
2022-09-15T08:55:52.515Z,64.92
2022-09-15T09:06:58.886Z,64.40
2022-09-15T09:09:58.106Z,63.99
2022-09-15T09:13:38.527Z,63.89
2022-09-15T09:17:05.472Z,63.29
2022-09-15T09:20:36.135Z,63.52
2022-09-15T09:26:24.174Z,63.51
2022-09-15T09:26:45.632Z,63.29
2022-09-15T09:29:30.233Z,63.23
2022-09-15T09:32:17.651Z,63.09
2022-09-15T09:35:05.736Z,63.24
2022-09-15T09:37:47.629Z,63.09
2022-09-15T09:40:28.792Z,62.63
2022-09-15T09:43:01.400Z,62.59
2022-09-15T09:45:54.326Z,62.83
2022-09-15T09:48:30.170Z,62.53
2022-09-15T09:51:36.643Z,62.49
2022-09-15T09:54:16.507Z,62.47
2022-09-15T09:56:45.725Z,62.05
2022-09-15T09:59:46.636Z,61.29
2022-09-15T10:02:21.834Z,60.84
2022-09-15T10:04:59.283Z,60.18
2022-09-15T10:07:36.472Z,59.30
2022-09-15T10:10:23.228Z,59.72
2022-09-15T10:12:57.877Z,59.97
2022-09-15T10:15:36.461Z,59.98
2022-09-15T10:18:07.841Z,59.90
2022-09-15T10:20:50.653Z,60.02
2022-09-15T10:23:41.024Z,59.71
2022-09-15T10:26:23.138Z,59.27
2022-09-15T10:29:15.129Z,57.91
2022-09-15T10:31:45.629Z,57.58
2022-09-15T10:34:31.317Z,58.27
2022-09-15T10:37:37.938Z,57.71
2022-09-15T10:40:34.442Z,56.37
2022-09-15T10:43:40.363Z,56.32
2022-09-15T10:46:24.100Z,55.16
2022-09-15T10:49:29.251Z,53.94
2022-09-15T10:52:16.824Z,53.80
2022-09-15T10:55:24.824Z,54.23
2022-09-15T10:58:34.472Z,53.19
2022-09-15T11:01:31.493Z,52.62
2022-09-15T11:04:27.982Z,53.19
2022-09-15T11:08:13.844Z,53.52
2022-09-15T11:11:12.473Z,54.10
2022-09-15T11:14:01.916Z,52.86
2022-09-15T11:16:56.606Z,50.18
2022-09-15T11:20:12.045Z,49.97
2022-09-15T11:22:51.609Z,50.91
2022-09-15T11:25:27.218Z,49.67
2022-09-15T11:28:05.559Z,48.80
2022-09-15T11:30:48.661Z,48.70
2022-09-15T11:33:52.218Z,47.67
2022-09-15T11:36:29.722Z,47.27
2022-09-15T11:39:20.792Z,47.36
2022-09-15T11:43:18.014Z,46.74
2022-09-15T11:46:01.059Z,47.49
2022-09-15T11:50:10.487Z,47.29
2022-09-15T11:53:13.714Z,45.12
2022-09-15T11:55:52.102Z,43.86
2022-09-15T11:58:51.692Z,43.50
2022-09-15T12:01:56.114Z,43.36
2022-09-15T12:04:33.550Z,42.76
2022-09-15T12:07:24.058Z,42.92
2022-09-15T12:09:53.355Z,42.96
2022-09-15T12:12:27.006Z,43.39
2022-09-15T12:14:58.905Z,43.63
2022-09-15T12:17:52.962Z,43.11
2022-09-15T12:20:33.171Z,43.79
2022-09-15T12:23:19.914Z,44.06
2022-09-15T12:26:15.607Z,44.05
2022-09-15T12:28:54.977Z,44.09
2022-09-15T12:31:29.893Z,44.34
2022-09-15T12:34:13.552Z,43.50
2022-09-15T12:36:45.873Z,42.63
2022-09-15T12:39:26.857Z,41.64
2022-09-15T12:42:14.305Z,39.90
2022-09-15T12:44:49.568Z,40.15
2022-09-15T12:47:50.601Z,39.59
2022-09-15T12:50:32.888Z,39.97
2022-09-15T12:53:27.687Z,39.99
2022-09-15T12:56:09.629Z,40.23
2022-09-15T12:58:40.856Z,40.51
2022-09-15T13:01:36.801Z,40.31
2022-09-15T13:04:44.545Z,39.89
2022-09-15T13:07:33.040Z,40.35
2022-09-15T13:10:20.271Z,40.43
2022-09-15T13:12:55.039Z,40.91
2022-09-15T13:15:26.001Z,42.46
2022-09-15T13:17:57.579Z,43.50
2022-09-15T13:20:37.017Z,43.54
2022-09-15T13:23:11.488Z,43.46
2022-09-15T13:25:46.480Z,42.06
2022-09-15T13:28:20.439Z,41.65
2022-09-15T13:32:44.882Z,41.75
2022-09-15T13:39:35.562Z,42.68
2022-09-15T14:01:01.668Z,46.04
2022-09-15T14:07:21.279Z,47.89
2022-09-15T14:13:48.641Z,45.73
2022-09-15T14:16:36.973Z,45.97
2022-09-15T14:26:18.238Z,46.18
2022-09-15T14:28:55.449Z,45.77
2022-09-15T14:31:28.957Z,44.89
2022-09-15T14:33:57.554Z,45.61
2022-09-15T14:36:31.362Z,45.76
2022-09-15T14:39:20.035Z,45.98
2022-09-15T14:41:50.114Z,46.09
2022-09-15T14:47:22.502Z,46.35
2022-09-15T14:50:08.232Z,46.52
2022-09-15T14:52:40.528Z,46.44
2022-09-15T14:55:18.895Z,46.41
2022-09-15T14:57:55.882Z,46.52
2022-09-15T15:00:28.255Z,46.94
2022-09-15T15:03:31.997Z,47.01
2022-09-15T15:09:14.153Z,46.77
2022-09-15T15:11:44.100Z,46.70
2022-09-15T15:14:13.511Z,46.79
2022-09-15T15:16:52.450Z,46.52
2022-09-15T15:19:35.659Z,46.27
2022-09-15T15:22:20.628Z,46.69
2022-09-15T15:24:53.707Z,47.81
2022-09-15T15:27:41.537Z,47.44
2022-09-15T15:30:33.335Z,46.84
2022-09-15T15:33:05.861Z,46.83
2022-09-15T15:35:35.714Z,47.00
2022-09-15T15:38:14.695Z,47.45
2022-09-15T15:40:45.913Z,47.82
2022-09-15T15:43:23.458Z,48.12
2022-09-15T15:45:57.993Z,48.32
2022-09-15T15:48:27.735Z,48.00
2022-09-15T15:50:56.216Z,47.91
2022-09-15T15:53:24.555Z,47.99
2022-09-15T15:55:55.257Z,48.17
2022-09-15T15:58:24.046Z,48.27
2022-09-15T16:00:57.440Z,48.21
2022-09-15T16:03:32.109Z,48.67
2022-09-15T16:06:01.912Z,48.91
2022-09-15T16:08:33.178Z,48.86
2022-09-15T16:11:02.936Z,49.12
2022-09-15T16:13:31.470Z,49.36
2022-09-15T16:16:01.840Z,49.52
2022-09-15T16:18:29.938Z,49.71
2022-09-15T16:20:58.154Z,49.98
2022-09-15T16:23:25.990Z,52.25
2022-09-15T16:25:59.571Z,54.69
2022-09-15T16:28:28.832Z,55.65
2022-09-15T16:30:57.999Z,56.00
2022-09-15T16:33:26.235Z,56.10
2022-09-15T16:36:03.609Z,56.15
2022-09-15T16:38:32.214Z,56.00
2022-09-15T16:41:02.429Z,56.00
2022-09-15T16:44:11.735Z,55.94
2022-09-15T16:47:41.804Z,56.01
2022-09-15T16:51:01.708Z,56.38
2022-09-15T16:54:20.173Z,56.59
2022-09-15T16:57:10.033Z,56.90
2022-09-15T17:00:57.852Z,56.72
2022-09-15T17:03:48.258Z,57.19
2022-09-15T17:06:22.290Z,57.07
2022-09-15T17:08:52.370Z,56.75
2022-09-15T17:11:24.158Z,56.75
2022-09-15T17:13:52.897Z,56.63
2022-09-15T17:16:20.981Z,56.64
2022-09-15T17:18:49.714Z,57.45
2022-09-15T17:21:20.263Z,56.96
2022-09-15T17:23:50.158Z,57.22
2022-09-15T17:26:23.993Z,57.53
2022-09-15T17:28:55.521Z,58.45
2022-09-15T17:31:24.905Z,59.10
2022-09-15T17:33:53.099Z,59.50
2022-09-15T17:36:21.076Z,59.82
2022-09-15T17:38:49.264Z,59.60
2022-09-15T17:41:20.596Z,59.59
2022-09-15T17:43:49.570Z,60.37
2022-09-15T17:46:17.458Z,60.71
2022-09-15T17:48:45.452Z,60.99
2022-09-15T17:51:17.653Z,60.90
2022-09-15T17:53:47.173Z,60.81
2022-09-15T17:56:15.204Z,60.84
2022-09-15T17:58:44.842Z,61.27
2022-09-15T18:01:15.719Z,61.27
2022-09-15T18:03:45.131Z,62.02
2022-09-15T18:06:13.823Z,62.74
2022-09-15T18:08:41.949Z,63.41
2022-09-15T18:11:13.121Z,63.50
2022-09-15T18:13:41.657Z,63.46
2022-09-15T18:16:13.661Z,64.30
2022-09-15T18:18:42.950Z,65.71
2022-09-15T18:21:27.016Z,65.44
2022-09-15T18:23:56.112Z,65.68
2022-09-15T18:26:26.590Z,67.06
2022-09-15T18:28:55.909Z,66.89
2022-09-15T18:31:24.456Z,66.70
2022-09-15T18:33:52.498Z,66.52
2022-09-15T18:36:20.982Z,66.11
2022-09-15T18:38:48.963Z,66.09
2022-09-15T18:41:20.151Z,66.19
2022-09-15T18:43:49.701Z,65.91
2022-09-15T18:46:18.492Z,65.87
2022-09-15T18:48:46.560Z,65.45
2022-09-15T18:51:23.727Z,65.27
2022-09-15T18:53:57.489Z,64.76
2022-09-15T18:56:25.526Z,64.26
2022-09-15T18:58:54.722Z,64.03
2022-09-15T19:01:22.865Z,63.98
2022-09-15T19:03:51.184Z,64.00
2022-09-15T19:06:19.066Z,63.98
2022-09-15T19:08:47.920Z,63.97
2022-09-15T19:11:16.308Z,63.93
2022-09-15T19:13:44.649Z,63.83
2022-09-15T19:16:13.253Z,63.80
2022-09-15T19:18:41.282Z,63.63
2022-09-15T19:21:11.772Z,63.64
2022-09-15T19:23:39.846Z,63.48
2022-09-15T19:26:13.661Z,63.41
2022-09-15T19:28:44.389Z,63.33
2022-09-15T19:31:12.838Z,63.46
2022-09-15T19:33:41.186Z,65.11
2022-09-15T19:36:28.450Z,64.21
2022-09-15T19:38:59.179Z,64.09
2022-09-15T19:41:27.079Z,64.14
2022-09-15T19:43:55.306Z,64.89
2022-09-15T19:46:25.634Z,66.17
2022-09-15T19:48:54.239Z,67.49
2022-09-15T19:51:22.631Z,66.86
2022-09-15T19:53:55.207Z,67.63
2022-09-15T19:56:26.308Z,68.47
2022-09-15T19:58:56.278Z,67.04
2022-09-15T20:01:26.168Z,66.60
2022-09-15T20:03:57.099Z,66.55
2022-09-15T20:06:30.201Z,67.32
2022-09-15T20:09:00.596Z,66.48
2022-09-15T20:11:32.848Z,66.18
2022-09-15T20:14:02.153Z,65.97
2022-09-15T20:16:32.604Z,65.79
2022-09-15T20:19:03.944Z,65.72
2022-09-15T20:21:51.418Z,65.66
2022-09-15T20:24:22.056Z,65.71
2022-09-15T20:26:50.548Z,66.39
2022-09-15T20:29:19.727Z,66.33
2022-09-15T20:31:48.329Z,66.20
2022-09-15T20:34:18.800Z,66.56
2022-09-15T20:36:47.167Z,66.56
2022-09-15T20:39:19.464Z,66.61
2022-09-15T20:41:47.969Z,66.56
2022-09-15T20:44:16.002Z,67.48
2022-09-15T20:46:44.435Z,67.75
2022-09-15T20:49:13.109Z,67.22
2022-09-15T20:51:41.896Z,67.10
2022-09-15T20:54:10.985Z,67.18
2022-09-15T20:56:39.180Z,66.97
2022-09-15T20:59:10.401Z,67.11
2022-09-15T21:01:39.745Z,67.69
2022-09-15T21:04:09.198Z,67.21
2022-09-15T21:06:38.640Z,67.13
2022-09-15T21:09:09.447Z,66.99
2022-09-15T21:11:39.182Z,66.85
2022-09-15T21:14:08.002Z,66.80
2022-09-15T21:16:36.166Z,66.78
2022-09-15T21:19:04.322Z,66.68
2022-09-15T21:21:34.449Z,66.87
2022-09-15T21:24:06.238Z,66.85
2022-09-15T21:26:58.046Z,67.03
2022-09-15T21:29:28.147Z,68.47
2022-09-15T21:31:56.553Z,68.81
2022-09-15T21:34:26.289Z,70.51
2022-09-15T21:36:54.590Z,69.46
2022-09-15T21:39:23.192Z,68.91
2022-09-15T21:41:51.394Z,69.17
2022-09-15T21:44:19.563Z,69.28
2022-09-15T21:46:48.000Z,70.55
2022-09-15T21:49:18.096Z,70.07
2022-09-15T21:51:46.436Z,70.08
2022-09-15T21:54:15.041Z,69.79
2022-09-15T21:56:42.989Z,69.86
2022-09-15T21:59:11.105Z,70.47
2022-09-15T22:01:40.155Z,70.64
2022-09-15T22:04:11.807Z,70.34
2022-09-15T22:06:41.448Z,70.36
2022-09-15T22:09:14.360Z,70.24
2022-09-15T22:11:42.492Z,70.32
2022-09-15T22:14:11.949Z,70.22
2022-09-15T22:16:41.783Z,70.19
2022-09-15T22:19:11.959Z,70.15
2022-09-15T22:21:42.574Z,70.26
2022-09-15T22:24:14.719Z,70.36
2022-09-15T22:26:43.708Z,70.35
2022-09-15T22:29:11.685Z,70.54
2022-09-15T22:31:39.879Z,70.86
2022-09-15T22:34:07.852Z,71.59
2022-09-15T22:36:36.003Z,71.44
2022-09-15T22:39:06.216Z,71.32
2022-09-15T22:41:38.089Z,71.28
2022-09-15T22:44:07.998Z,71.32
2022-09-15T22:46:36.026Z,71.35
2022-09-15T22:49:03.935Z,71.37
2022-09-15T22:51:31.917Z,71.46
2022-09-15T22:54:03.057Z,71.55
2022-09-15T22:56:31.133Z,71.85
2022-09-15T22:59:00.169Z,72.03
2022-09-15T23:01:30.810Z,72.08
2022-09-15T23:04:01.935Z,72.25
2022-09-15T23:06:33.406Z,72.11
2022-09-15T23:09:05.000Z,72.18
2022-09-15T23:11:33.345Z,72.67
2022-09-15T23:14:03.262Z,72.35
2022-09-15T23:16:31.627Z,73.73
2022-09-15T23:18:59.799Z,73.82
2022-09-15T23:21:28.331Z,73.27
2022-09-15T23:23:57.045Z,72.98
2022-09-15T23:26:26.700Z,72.92
2022-09-15T23:28:55.137Z,73.17
2022-09-15T23:31:23.165Z,73.05
2022-09-15T23:33:51.049Z,73.04
2022-09-15T23:36:19.760Z,73.29
2022-09-15T23:38:49.024Z,73.38
2022-09-15T23:41:18.321Z,73.23
2022-09-15T23:43:47.186Z,73.03
2022-09-15T23:46:17.896Z,73.01
2022-09-15T23:48:45.869Z,72.95
2022-09-15T23:51:14.055Z,72.53
2022-09-15T23:53:42.048Z,71.93
2022-09-15T23:56:10.323Z,71.36
2022-09-15T23:58:38.869Z,70.85
